Date,TemperatureHighF,TemperatureAvgF,TemperatureLowF,DewpointHighF,DewpointAvgF,DewpointLowF,HumidityHigh,HumidityAvg,HumidityLow,PressureMaxIn,PressureMinIn,WindSpeedMaxMPH,WindSpeedAvgMPH,GustSpeedMaxMPH,PrecipitationSumIn
2013-10-10,66,66,65,63,63,62,92,90,87,29.95,29.93,0,0,0,0.00
2013-10-11,83,70,62,68,64,61,96,83,53,29.96,29.85,7,0,9,0.00
2013-10-12,81,70,61,69,65,60,98,85,60,30.00,29.90,5,0,6,0.00
2013-10-13,72,69,66,67,66,64,94,89,82,30.11,30.05,4,0,7,0.00
2013-10-14,70,67,65,66,65,63,95,91,87,30.12,30.05,6,0,10,0.00
2013-10-15,76,66,60,63,60,58,94,83,59,30.10,29.96,6,0,8,0.00
2013-10-16,75,63,59,66,61,58,97,92,71,30.01,29.92,3,0,5,0.00
2013-10-17,84,70,60,70,65,59,99,85,59,29.95,29.83,4,0,8,0.00
2013-10-18,73,69,66,72,68,65,98,96,92,29.94,29.85,1,0,2,0.20
2013-10-19,78,70,64,70,65,57,99,86,67,29.91,29.82,3,0,5,0.01
2013-10-20,71,63,57,59,56,53,92,80,61,30.04,29.88,5,0,7,0.00
2013-10-21,70,61,54,61,57,52,94,87,66,30.09,29.97,2,0,6,0.00
2013-10-22,70,63,59,64,61,58,100,93,75,29.99,29.79,1,0,2,0.08
2013-10-23,69,61,53,61,53,39,98,80,33,30.00,29.73,7,0,8,0.01
2013-10-24,65,51,39,47,41,36,91,70,44,30.17,30.00,4,0,6,0.00
2013-10-25,60,51,46,46,41,38,94,71,45,30.32,30.10,6,0,8,0.00
2013-10-26,61,46,38,41,37,34,85,71,38,30.31,30.10,4,0,6,0.00
2013-10-27,70,52,41,54,46,38,93,81,51,30.11,30.03,2,0,5,0.00
2013-10-28,70,60,52,63,57,50,98,91,74,30.22,30.08,2,0,4,0.05
2013-10-29,75,60,49,61,56,48,98,86,60,30.30,30.19,3,0,5,0.00
2013-10-30,79,62,52,64,57,51,98,86,54,30.28,30.13,3,0,5,0.01
2013-10-31,81,66,53,69,62,52,99,86,63,30.16,29.93,0,0,4,0.00